Time;durP1;ratioP1;P1;durP2;ratioP2;P2;SDS_P1;SDS_P2;PMS_P1;PMS_P2;Temp;Humidity;BMP_temperature;BMP_pressure;BME280_temperature;BME280_humidity;BME280_pressure;Samples;Min_cycle;Max_cycle;Signal;HPM_P1;HPM_P2
2022/09/22 00:01:19;;;;;;;0.30;0.30;;;;;;;12.68;52.03;95314.69;5037590;28;20518;-70
2022/09/22 00:03:51;;;;;;;1.03;0.60;;;;;;;12.52;52.15;95305.16;5035732;28;20472;-71
2022/09/22 00:06:22;;;;;;;0.20;0.20;;;;;;;12.92;51.63;95315.03;5029945;28;20523;-64
2022/09/22 00:08:52;;;;;;;0.07;0.07;;;;;;;12.87;51.48;95312.41;5030310;28;20502;-70
2022/09/22 00:11:27;;;;;;;0.20;0.20;;;;;;;12.76;51.35;95308.94;5035960;28;20518;-67
2022/09/22 00:13:57;;;;;;;0.00;0.00;;;;;;;13.10;50.88;95311.97;5050915;28;20450;-70
2022/09/22 00:16:28;;;;;;;0.37;0.30;;;;;;;12.84;51.04;95324.25;5041681;28;20446;-68
2022/09/22 00:18:55;;;;;;;0.40;0.40;;;;;;;12.77;51.57;95317.63;5049741;28;20843;-71
2022/09/22 00:21:26;;;;;;;0.30;0.30;;;;;;;13.33;50.13;95321.19;5049491;28;20442;-67
2022/09/22 00:23:53;;;;;;;0.63;0.63;;;;;;;13.32;49.77;95314.38;5037282;28;20448;-67
2022/09/22 00:26:22;;;;;;;0.00;0.00;;;;;;;13.15;50.13;95318.03;5037038;28;20513;-69
2022/09/22 00:28:50;;;;;;;0.20;0.20;;;;;;;13.63;49.12;95305.44;5055646;28;20880;-68
2022/09/22 00:31:20;;;;;;;0.47;0.47;;;;;;;13.47;49.39;95303.81;5049816;28;20439;-71
2022/09/22 00:33:48;;;;;;;0.33;0.30;;;;;;;13.08;50.68;95314.84;5050183;28;20923;-65
2022/09/22 00:36:17;;;;;;;0.10;0.10;;;;;;;12.95;50.33;95317.97;5050289;28;20471;-65
2022/09/22 00:38:45;;;;;;;0.30;0.30;;;;;;;13.14;50.25;95303.28;5052219;28;20548;-69
2022/09/22 00:41:35;;;;;;;0.10;0.10;;;;;;;13.37;49.97;95322.25;5050693;28;20511;-69
2022/09/22 00:44:20;;;;;;;0.20;0.20;;;;;;;13.30;49.75;95312.00;5040912;28;21116;-65
2022/09/22 00:46:56;;;;;;;0.10;0.10;;;;;;;13.15;50.08;95320.66;5048333;28;20470;-64
2022/09/22 00:49:40;;;;;;;0.30;0.30;;;;;;;13.18;50.69;95306.97;5030327;28;20448;-69
2022/09/22 00:52:08;;;;;;;0.10;0.10;;;;;;;12.80;51.17;95311.84;5029513;28;20436;-70
2022/09/22 00:54:37;;;;;;;0.00;0.00;;;;;;;12.97;50.77;95315.06;5041394;28;20471;-68
2022/09/22 00:57:13;;;;;;;0.40;0.40;;;;;;;12.99;50.03;95305.84;5034293;28;21010;-62
2022/09/22 00:59:43;;;;;;;0.10;0.10;;;;;;;13.04;50.35;95300.66;5037589;28;20481;-72
2022/09/22 01:02:10;;;;;;;0.30;0.30;;;;;;;13.13;50.48;95306.97;5034965;28;20454;-69
2022/09/22 01:04:37;;;;;;;0.10;0.10;;;;;;;13.36;49.87;95304.91;5049224;28;20983;-67
2022/09/22 01:07:05;;;;;;;0.00;0.00;;;;;;;13.60;49.13;95295.41;5049517;28;20897;-68
2022/09/22 01:09:32;;;;;;;0.00;0.00;;;;;;;13.41;49.37;95307.53;5030028;28;20958;-71
2022/09/22 01:12:01;;;;;;;0.23;0.23;;;;;;;13.34;49.38;95296.47;5029382;28;20573;-69
2022/09/22 01:14:37;;;;;;;0.00;0.00;;;;;;;13.30;50.10;95300.69;5047171;28;20450;-66
2022/09/22 01:17:10;;;;;;;0.10;0.10;;;;;;;13.16;49.86;95301.19;5052129;28;20466;-70
2022/09/22 01:20:02;;;;;;;0.00;0.00;;;;;;;13.28;49.75;95308.03;5048343;28;20475;-70
2022/09/22 01:22:59;;;;;;;0.20;0.20;;;;;;;13.01;50.03;95303.75;5032959;28;20444;-69
2022/09/22 01:25:54;;;;;;;0.07;0.07;;;;;;;12.82;50.88;95301.88;5043193;28;20857;-65
2022/09/22 01:28:45;;;;;;;0.67;0.57;;;;;;;12.77;51.50;95313.16;5047850;28;20973;-67
2022/09/22 01:31:29;;;;;;;0.00;0.00;;;;;;;12.78;51.11;95306.84;5048175;28;20435;-67
2022/09/22 01:34:07;;;;;;;0.00;0.00;;;;;;;13.44;49.86;95304.38;5042888;28;20447;-70
2022/09/22 01:36:42;;;;;;;0.40;0.40;;;;;;;12.99;50.42;95316.38;5036763;28;20449;-70
2022/09/22 01:39:16;;;;;;;0.00;0.00;;;;;;;12.92;50.56;95302.69;5054766;28;20442;-66
2022/09/22 01:41:54;;;;;;;0.10;0.10;;;;;;;13.35;49.76;95300.66;5053069;28;20492;-68
2022/09/22 01:44:28;;;;;;;0.10;0.10;;;;;;;13.29;49.85;95297.25;5052335;28;20830;-71
2022/09/22 01:47:01;;;;;;;0.00;0.00;;;;;;;13.16;50.15;95303.81;5047306;28;20454;-69
2022/09/22 01:49:32;;;;;;;0.10;0.10;;;;;;;13.62;49.20;95288.03;5032431;28;20955;-69
2022/09/22 01:52:05;;;;;;;0.10;0.10;;;;;;;13.47;49.48;95295.94;5037035;28;20453;-69
2022/09/22 01:54:40;;;;;;;0.10;0.10;;;;;;;13.23;49.56;95292.25;5040943;28;21018;-68
2022/09/22 01:57:20;;;;;;;0.00;0.00;;;;;;;13.71;49.03;95297.78;5037320;28;20467;-64
2022/09/22 01:59:53;;;;;;;0.27;0.27;;;;;;;13.51;48.97;95289.09;5052384;28;20450;-67
2022/09/22 02:02:29;;;;;;;0.00;0.00;;;;;;;13.63;48.49;95290.41;5037961;28;20447;-68
2022/09/22 02:05:01;;;;;;;0.03;0.03;;;;;;;13.71;48.95;95291.72;5052422;28;20485;-67
2022/09/22 02:07:36;;;;;;;0.03;0.03;;;;;;;13.50;49.08;95288.31;5052333;28;21253;-68
2022/09/22 02:10:08;;;;;;;0.00;0.00;;;;;;;13.62;48.84;95294.09;5042936;28;20435;-66
2022/09/22 02:12:36;;;;;;;0.10;0.10;;;;;;;13.64;48.53;95299.09;5048706;28;20516;-70
2022/09/22 02:15:58;;;;;;;0.10;0.10;;;;;;;13.57;48.76;95278.31;5043635;28;20446;-67
2022/09/22 02:17:56;;;;;;;0.73;0.73;;;;;;;13.63;48.57;95285.13;5049448;28;21009;-69
2022/09/22 02:20:25;;;;;;;0.40;0.40;;;;;;;13.13;49.47;95295.66;5051853;28;20843;-67
2022/09/22 02:22:53;;;;;;;0.43;0.43;;;;;;;13.39;49.14;95291.22;5049022;28;20476;-70
2022/09/22 02:25:22;;;;;;;0.50;0.50;;;;;;;13.37;49.32;95280.94;5049032;28;20453;-65
2022/09/22 02:27:53;;;;;;;0.17;0.17;;;;;;;13.52;49.03;95278.28;5050627;28;20531;-66
2022/09/22 02:30:22;;;;;;;0.30;0.30;;;;;;;13.46;49.00;95281.19;5052207;28;20439;-68
2022/09/22 02:32:51;;;;;;;0.10;0.10;;;;;;;13.37;48.97;95290.69;5037759;28;20526;-66
2022/09/22 02:35:19;;;;;;;1.40;1.10;;;;;;;13.45;49.27;95284.91;5051980;28;20462;-69
2022/09/22 02:38:12;;;;;;;0.10;0.10;;;;;;;13.49;48.81;95293.81;5051489;28;20482;-64
2022/09/22 02:40:58;;;;;;;0.33;0.23;;;;;;;13.35;49.30;95293.56;5042360;28;21064;-68
2022/09/22 02:43:30;;;;;;;0.20;0.20;;;;;;;13.19;49.77;95299.88;5049225;28;20474;-70
2022/09/22 02:46:15;;;;;;;0.77;0.77;;;;;;;13.40;48.83;95296.19;5051252;28;20439;-70
2022/09/22 02:48:50;;;;;;;0.10;0.10;;;;;;;12.34;50.73;95308.25;5032884;28;20539;-67
2022/09/22 02:51:17;;;;;;;0.10;0.10;;;;;;;12.76;49.75;95308.94;5040268;28;20443;-65
2022/09/22 02:53:44;;;;;;;0.10;0.10;;;;;;;12.68;49.36;95313.94;5062524;28;20463;-66
2022/09/22 02:56:11;;;;;;;0.20;0.20;;;;;;;12.72;49.31;95315.75;5045596;28;21024;-69
2022/09/22 02:58:38;;;;;;;0.10;0.10;;;;;;;12.77;49.21;95312.38;5044884;28;20522;-65
2022/09/22 03:01:05;;;;;;;0.33;0.33;;;;;;;12.29;49.62;95321.38;5051208;28;20443;-70
2022/09/22 03:03:32;;;;;;;0.67;0.67;;;;;;;12.64;49.48;95313.66;5039059;28;20966;-68
2022/09/22 03:05:59;;;;;;;0.67;0.30;;;;;;;12.80;49.07;95312.66;5044881;28;20447;-67
2022/09/22 03:08:25;;;;;;;0.00;0.00;;;;;;;12.36;49.71;95316.69;5041385;28;20519;-70
2022/09/22 03:10:52;;;;;;;1.10;0.70;;;;;;;12.45;49.80;95315.13;5034832;28;20454;-67
2022/09/22 03:13:19;;;;;;;0.20;0.20;;;;;;;12.36;49.99;95313.25;5039662;28;20441;-70
2022/09/22 03:15:46;;;;;;;0.10;0.10;;;;;;;12.70;49.44;95311.84;5050996;28;20439;-67
2022/09/22 03:18:14;;;;;;;0.60;0.50;;;;;;;12.57;49.98;95309.69;5044232;28;20475;-68
2022/09/22 03:20:41;;;;;;;0.53;0.47;;;;;;;12.36;50.49;95306.16;5044082;28;20446;-68
2022/09/22 03:23:08;;;;;;;0.60;0.60;;;;;;;12.35;50.96;95309.84;5045178;28;20522;-70
2022/09/22 03:25:35;;;;;;;0.30;0.30;;;;;;;12.68;50.20;95304.19;5042084;28;20867;-65
2022/09/22 03:28:02;;;;;;;0.40;0.40;;;;;;;12.61;51.53;95311.53;5032623;28;20440;-65
2022/09/22 03:30:29;;;;;;;2.03;0.43;;;;;;;12.37;52.51;95312.22;5040304;28;20771;-68
2022/09/22 03:32:56;;;;;;;0.30;0.30;;;;;;;12.37;53.00;95312.97;5050287;28;20454;-71
2022/09/22 03:35:23;;;;;;;0.50;0.50;;;;;;;12.45;52.81;95309.88;5050252;28;20431;-68
2022/09/22 03:37:50;;;;;;;0.40;0.40;;;;;;;12.47;52.34;95297.28;5050000;28;20478;-66
2022/09/22 03:40:17;;;;;;;0.30;0.30;;;;;;;12.35;52.99;95304.59;5044068;28;20523;-68
2022/09/22 03:42:44;;;;;;;0.50;0.50;;;;;;;12.73;52.48;95306.84;5042627;28;20946;-61
2022/09/22 03:45:11;;;;;;;0.70;0.70;;;;;;;12.81;52.10;95303.69;5045581;28;20930;-73
2022/09/22 03:47:38;;;;;;;0.10;0.10;;;;;;;12.63;53.09;95306.78;5030437;28;20455;-68
2022/09/22 03:50:05;;;;;;;0.07;0.07;;;;;;;12.28;53.84;95305.88;5030280;28;21050;-68
2022/09/22 03:52:33;;;;;;;0.87;0.50;;;;;;;12.29;53.75;95316.13;5039195;28;20447;-70
2022/09/22 03:55:01;;;;;;;0.10;0.10;;;;;;;12.73;52.79;95306.84;5034290;28;20448;-66
2022/09/22 03:57:29;;;;;;;0.60;0.60;;;;;;;12.97;52.38;95315.84;5029774;28;20535;-65
2022/09/22 03:59:56;;;;;;;0.23;0.23;;;;;;;12.77;52.27;95317.63;5040908;28;20439;-69
2022/09/22 04:02:22;;;;;;;0.20;0.20;;;;;;;12.63;52.57;95314.69;5036099;28;20526;-72
2022/09/22 04:04:49;;;;;;;0.17;0.17;;;;;;;12.74;52.33;95308.41;5050134;28;20439;-69
2022/09/22 04:07:16;;;;;;;0.10;0.10;;;;;;;13.06;51.79;95316.16;5050071;28;20439;-65
2022/09/22 04:09:43;;;;;;;8.47;1.40;;;;;;;12.93;52.14;95316.63;5044068;28;20444;-64
2022/09/22 04:12:10;;;;;;;0.10;0.10;;;;;;;13.18;51.07;95309.59;5043239;28;20451;-70
2022/09/22 04:14:37;;;;;;;0.23;0.23;;;;;;;13.26;50.92;95310.13;5036399;28;20457;-69
2022/09/22 04:17:06;;;;;;;0.53;0.50;;;;;;;13.10;52.00;95311.97;5050038;28;20442;-68
2022/09/22 04:19:34;;;;;;;0.47;0.47;;;;;;;12.77;52.10;95317.63;5031753;28;20860;-69
2022/09/22 04:22:02;;;;;;;0.40;0.40;;;;;;;12.89;51.84;95326.06;5039677;28;20991;-73
2022/09/22 04:24:29;;;;;;;0.10;0.10;;;;;;;12.46;52.15;95300.97;5049481;28;20439;-69
2022/09/22 04:26:56;;;;;;;0.33;0.33;;;;;;;12.53;52.53;95327.81;5041195;28;20436;-67
2022/09/22 04:29:43;;;;;;;0.10;0.10;;;;;;;12.98;51.34;95317.44;5029469;28;20440;-67
2022/09/22 04:32:10;;;;;;;0.10;0.10;;;;;;;12.79;51.57;95318.94;5030286;28;20439;-67
2022/09/22 04:34:37;;;;;;;0.03;0.03;;;;;;;12.81;51.97;95319.47;5051202;28;20447;-61
2022/09/22 04:37:04;;;;;;;0.10;0.10;;;;;;;12.73;52.37;95320.00;5038313;28;20439;-68
2022/09/22 04:39:31;;;;;;;0.20;0.20;;;;;;;12.66;52.54;95322.06;5049469;28;20940;-69
2022/09/22 04:41:57;;;;;;;0.50;0.50;;;;;;;12.52;52.49;95320.94;5049488;28;21008;-66
2022/09/22 04:44:24;;;;;;;0.67;0.40;;;;;;;13.13;51.32;95321.97;5049362;28;20662;-68
2022/09/22 04:46:51;;;;;;;0.87;0.87;;;;;;;12.92;50.96;95326.34;5049554;28;20486;-69
2022/09/22 04:49:18;;;;;;;0.63;0.63;;;;;;;13.09;49.69;95329.59;5049182;28;21152;-69
2022/09/22 04:51:45;;;;;;;0.10;0.10;;;;;;;13.05;49.96;95325.88;5035633;28;20581;-65
2022/09/22 04:54:13;;;;;;;1.13;0.60;;;;;;;12.95;50.40;95325.84;5033968;28;20476;-72
2022/09/22 04:56:41;;;;;;;1.03;0.93;;;;;;;12.87;50.65;95317.66;5033980;28;20444;-67
2022/09/22 04:59:08;;;;;;;0.50;0.50;;;;;;;13.00;50.31;95317.16;5033528;28;21095;-66
2022/09/22 05:01:35;;;;;;;0.10;0.10;;;;;;;13.10;50.52;95322.50;5033755;28;20498;-68
2022/09/22 05:04:02;;;;;;;0.43;0.43;;;;;;;13.05;50.11;95328.53;5033273;28;20462;-66
2022/09/22 05:06:30;;;;;;;0.57;0.57;;;;;;;13.23;50.17;95322.75;5041350;28;20478;-70
2022/09/22 05:08:57;;;;;;;2.03;1.50;;;;;;;13.18;50.34;95320.13;5053038;28;20447;-75
2022/09/22 05:11:25;;;;;;;0.50;0.50;;;;;;;13.34;50.50;95322.78;5053534;28;20443;-64
2022/09/22 05:13:54;;;;;;;0.63;0.27;;;;;;;13.64;49.67;95318.34;5039991;28;20950;-69
2022/09/22 05:16:22;;;;;;;0.40;0.40;;;;;;;13.57;50.39;95323.06;5033049;28;20436;-71
2022/09/22 05:18:49;;;;;;;0.20;0.20;;;;;;;13.68;49.82;95322.03;5044577;28;20529;-69
2022/09/22 05:21:17;;;;;;;0.40;0.40;;;;;;;13.44;50.72;95333.31;5049579;28;20435;-70
2022/09/22 05:23:45;;;;;;;0.87;0.40;;;;;;;13.74;49.66;95318.31;5042916;28;20533;-69
2022/09/22 05:26:12;;;;;;;0.27;0.27;;;;;;;13.81;50.45;95323.34;5035778;28;21004;-66
2022/09/22 05:28:39;;;;;;;0.10;0.10;;;;;;;12.93;51.49;95333.22;5041354;28;20481;-68
2022/09/22 05:31:06;;;;;;;0.10;0.10;;;;;;;13.11;50.98;95324.88;5039024;28;20984;-70
2022/09/22 05:33:34;;;;;;;0.00;0.00;;;;;;;13.36;50.95;95333.84;5052849;28;20462;-73
2022/09/22 05:36:02;;;;;;;0.00;0.00;;;;;;;13.20;51.04;95328.56;5052786;28;20799;-69
2022/09/22 05:38:29;;;;;;;0.20;0.20;;;;;;;13.55;50.43;95327.00;5047162;28;20507;-70
2022/09/22 05:40:57;;;;;;;0.30;0.30;;;;;;;14.00;49.64;95326.97;5044917;28;20853;-64
2022/09/22 05:43:24;;;;;;;0.43;0.43;;;;;;;13.61;50.46;95333.88;5037900;28;20478;-67
2022/09/22 05:45:51;;;;;;;0.00;0.00;;;;;;;13.25;51.27;95327.00;5041212;28;20460;-68
2022/09/22 05:48:19;;;;;;;0.10;0.10;;;;;;;13.15;51.00;95336.44;5031428;28;20950;-69
2022/09/22 05:50:46;;;;;;;0.10;0.10;;;;;;;13.35;50.87;95337.53;5031729;28;20451;-65
2022/09/22 05:53:13;;;;;;;0.63;0.63;;;;;;;13.79;49.38;95331.50;5045915;28;20441;-73
2022/09/22 05:55:41;;;;;;;1.20;1.03;;;;;;;13.58;49.99;95339.63;5044362;28;20444;-68
2022/09/22 05:58:12;;;;;;;0.70;0.70;;;;;;;13.68;50.56;95329.91;5040351;28;20925;-71
2022/09/22 06:00:40;;;;;;;0.30;0.30;;;;;;;13.99;49.08;95330.69;5051681;28;20509;-67
2022/09/22 06:03:07;;;;;;;0.40;0.40;;;;;;;14.14;49.19;95328.03;5054488;28;20471;-67
2022/09/22 06:05:34;;;;;;;0.10;0.10;;;;;;;13.80;49.75;95334.91;5055085;28;20533;-67
2022/09/22 06:08:05;;;;;;;0.33;0.33;;;;;;;14.09;49.07;95330.66;5038679;28;20513;-66
2022/09/22 06:10:37;;;;;;;0.30;0.30;;;;;;;13.88;49.88;95326.47;5051197;28;20512;-68
2022/09/22 06:13:06;;;;;;;0.10;0.10;;;;;;;13.86;49.62;95333.84;5051122;28;20450;-68
2022/09/22 06:15:34;;;;;;;0.67;0.67;;;;;;;14.02;49.85;95327.50;5051093;28;20526;-71
2022/09/22 06:18:05;;;;;;;0.57;0.57;;;;;;;13.79;49.88;95330.72;5045836;28;20456;-66
2022/09/22 06:20:33;;;;;;;2.00;0.53;;;;;;;13.82;50.23;95330.16;5043298;28;20958;-67
2022/09/22 06:23:00;;;;;;;0.20;0.20;;;;;;;13.93;51.22;95340.44;5046989;28;20428;-66
2022/09/22 06:25:27;;;;;;;0.37;0.37;;;;;;;14.26;49.54;95336.44;5041196;28;20822;-69
2022/09/22 06:28:01;;;;;;;0.60;0.60;;;;;;;14.12;49.82;95319.59;5033867;28;20453;-66
2022/09/22 06:30:29;;;;;;;0.00;0.00;;;;;;;13.49;50.29;95330.69;5030989;28;20471;-69
2022/09/22 06:32:56;;;;;;;0.07;0.07;;;;;;;14.03;50.60;95337.78;5030915;28;20581;-64
2022/09/22 06:35:23;;;;;;;0.20;0.20;;;;;;;14.17;48.98;95338.03;5029407;28;20527;-69
2022/09/22 06:37:57;;;;;;;0.20;0.20;;;;;;;13.80;49.57;95342.81;5044365;28;20443;-69
2022/09/22 06:40:25;;;;;;;0.47;0.47;;;;;;;12.97;51.00;95350.03;5043964;28;20479;-72
2022/09/22 06:43:03;;;;;;;0.20;0.20;;;;;;;13.94;49.02;95333.34;5007652;28;1116271;-62
2022/09/22 06:45:32;;;;;;;0.13;0.13;;;;;;;14.31;48.67;95343.56;5035941;28;20439;-69
2022/09/22 06:48:00;;;;;;;0.37;0.37;;;;;;;14.64;47.84;95333.19;5031779;28;20983;-66
2022/09/22 06:50:31;;;;;;;0.73;0.73;;;;;;;14.00;48.57;95321.72;5032008;28;20447;-67
2022/09/22 06:53:03;;;;;;;0.20;0.20;;;;;;;14.61;47.50;95328.47;5031428;28;20444;-69
2022/09/22 06:55:30;;;;;;;0.40;0.40;;;;;;;14.39;47.86;95327.22;5050692;28;20902;-68
2022/09/22 06:57:58;;;;;;;0.83;0.83;;;;;;;15.05;47.96;95339.84;5041806;28;20450;-69
2022/09/22 07:00:31;;;;;;;0.30;0.30;;;;;;;14.74;47.29;95340.28;5043962;28;20502;-69
2022/09/22 07:03:10;;;;;;;0.10;0.10;;;;;;;14.92;46.54;95334.41;5040777;28;20468;-68
2022/09/22 07:05:37;;;;;;;0.27;0.27;;;;;;;14.99;46.96;95332.25;5041235;28;20463;-68
2022/09/22 07:08:04;;;;;;;1.13;0.50;;;;;;;14.65;47.89;95332.13;5041106;28;20471;-66
2022/09/22 07:10:36;;;;;;;0.10;0.10;;;;;;;15.07;47.22;95332.44;5040234;28;20448;-73
2022/09/22 07:13:04;;;;;;;0.40;0.40;;;;;;;15.03;47.19;95331.44;5037891;28;20501;-72
2022/09/22 07:15:34;;;;;;;0.50;0.50;;;;;;;14.68;47.32;95336.06;5050972;28;20490;-68
2022/09/22 07:18:02;;;;;;;0.23;0.23;;;;;;;14.63;48.52;95321.06;5050965;28;21744;-69
2022/09/22 07:20:29;;;;;;;0.10;0.10;;;;;;;14.82;47.20;95324.66;5050556;28;21029;-70
2022/09/22 07:22:59;;;;;;;1.00;0.67;;;;;;;14.61;47.61;95322.38;5050824;28;20485;-72
2022/09/22 07:25:27;;;;;;;0.57;0.53;;;;;;;14.85;48.69;95326.00;5050851;28;20966;-67
2022/09/22 07:27:56;;;;;;;0.20;0.20;;;;;;;15.03;46.73;95326.16;5050465;28;21149;-66
2022/09/22 07:30:25;;;;;;;1.10;0.70;;;;;;;14.82;47.67;95329.94;5050651;28;20467;-68
2022/09/22 07:32:52;;;;;;;0.33;0.33;;;;;;;15.23;46.62;95323.41;5036590;28;20447;-70
2022/09/22 07:35:18;;;;;;;0.07;0.07;;;;;;;14.88;47.14;95328.88;5050393;28;20431;-69
2022/09/22 07:37:45;;;;;;;0.30;0.30;;;;;;;14.99;47.40;95327.75;5050477;28;20446;-66
2022/09/22 07:40:13;;;;;;;0.10;0.10;;;;;;;15.83;46.55;95329.34;5050711;28;20474;-67
2022/09/22 07:42:40;;;;;;;0.30;0.30;;;;;;;15.49;45.25;95324.03;5038502;28;20440;-70
2022/09/22 07:45:11;;;;;;;0.10;0.10;;;;;;;15.05;45.50;95324.00;5048776;28;20870;-65
2022/09/22 07:50:24;;;;;;;0.20;0.20;;;;;;;14.97;46.29;95337.78;5033254;28;20436;-66
2022/09/22 07:52:52;;;;;;;0.07;0.07;;;;;;;15.42;45.60;95323.56;5046611;28;20451;-71
2022/09/22 07:55:22;;;;;;;0.10;0.10;;;;;;;16.12;44.00;95327.47;5031965;28;20440;-66
2022/09/22 07:57:56;;;;;;;0.00;0.00;;;;;;;16.03;44.17;95321.22;5037180;28;20969;-73
2022/09/22 08:00:25;;;;;;;0.23;0.23;;;;;;;15.65;44.75;95311.53;5050385;28;20471;-70
2022/09/22 08:02:54;;;;;;;0.20;0.20;;;;;;;16.27;43.64;95332.63;5043774;28;20436;-65
2022/09/22 08:05:23;;;;;;;0.17;0.17;;;;;;;16.24;43.73;95330.53;5042541;28;20853;-64
2022/09/22 08:07:50;;;;;;;0.20;0.20;;;;;;;16.67;43.45;95312.91;5044282;28;20845;-66
2022/09/22 08:10:18;;;;;;;0.50;0.50;;;;;;;15.84;42.03;95315.03;5041838;28;20445;-67
2022/09/22 08:12:46;;;;;;;0.10;0.10;;;;;;;15.30;43.62;95319.66;5036110;28;20431;-66
2022/09/22 08:15:13;;;;;;;0.20;0.20;;;;;;;15.20;44.23;95331.84;5040487;28;20448;-69
2022/09/22 08:17:40;;;;;;;0.20;0.20;;;;;;;16.02;42.99;95323.06;5029548;28;21096;-67
2022/09/22 08:20:07;;;;;;;0.20;0.20;;;;;;;16.28;42.78;95320.22;5037865;28;20569;-69
2022/09/22 08:22:34;;;;;;;0.00;0.00;;;;;;;16.91;41.00;95314.47;5035635;28;20472;-72
2022/09/22 08:25:01;;;;;;;0.00;0.00;;;;;;;16.28;41.00;95307.75;5049463;28;21055;-66
2022/09/22 08:27:28;;;;;;;0.10;0.10;;;;;;;15.73;41.10;95314.34;5049434;28;20439;-69
2022/09/22 08:29:55;;;;;;;0.20;0.20;;;;;;;16.56;41.27;95312.25;5030297;28;20909;-67
2022/09/22 08:32:29;;;;;;;0.00;0.00;;;;;;;16.26;40.63;95296.66;5041091;28;20483;-67
2022/09/22 08:34:56;;;;;;;1.10;1.00;;;;;;;16.03;41.07;95306.16;5044831;28;20494;-72
2022/09/22 08:37:26;;;;;;;0.10;0.10;;;;;;;16.27;41.22;95313.31;5040209;28;20541;-68
2022/09/22 08:39:53;;;;;;;0.10;0.10;;;;;;;16.68;40.43;95312.63;5049483;28;20467;-70
2022/09/22 08:42:21;;;;;;;0.40;0.40;;;;;;;16.64;39.20;95301.03;5049843;28;20442;-67
2022/09/22 08:45:01;;;;;;;0.53;0.50;;;;;;;16.45;39.08;95310.75;5048263;28;20458;-67
2022/09/22 08:53:27;;;;;;;0.10;0.10;;;;;;;18.23;37.67;95300.00;5032037;28;20887;-65
2022/09/22 08:56:05;;;;;;;0.10;0.10;;;;;;;18.27;37.47;95288.50;5050416;28;20904;-72
2022/09/22 08:58:47;;;;;;;0.10;0.10;;;;;;;17.97;36.56;95289.06;5042410;28;20439;-69
2022/09/22 09:01:33;;;;;;;0.10;0.10;;;;;;;17.20;38.01;95301.91;5049070;28;20956;-65
2022/09/22 09:04:15;;;;;;;0.10;0.10;;;;;;;17.58;37.04;95284.13;5049647;28;20529;-64
2022/09/22 09:07:20;;;;;;;0.20;0.20;;;;;;;16.98;37.96;95285.78;5032882;28;20444;-65
2022/09/22 09:10:16;;;;;;;0.43;0.43;;;;;;;17.33;37.94;95283.69;5057879;28;20501;-71
2022/09/22 09:12:43;;;;;;;2.47;0.93;;;;;;;18.36;37.18;95276.13;5048329;28;20441;-70
2022/09/22 09:15:19;;;;;;;0.10;0.10;;;;;;;18.95;35.11;95278.69;5050844;28;20447;-67
2022/09/22 09:17:47;;;;;;;0.10;0.10;;;;;;;18.61;34.92;95283.63;5047618;28;20550;-68
2022/09/22 09:20:17;;;;;;;0.17;0.17;;;;;;;18.15;35.50;95281.03;5029685;28;20548;-66
2022/09/22 09:22:54;;;;;;;0.10;0.10;;;;;;;17.56;36.31;95282.84;5045440;28;20457;-69
2022/09/22 09:25:35;;;;;;;1.80;1.13;;;;;;;17.28;36.99;95276.59;5050262;28;20467;-68
2022/09/22 09:28:16;;;;;;;0.57;0.57;;;;;;;17.46;37.15;95272.38;5035228;28;20516;-69
2022/09/22 09:30:48;;;;;;;0.10;0.10;;;;;;;17.56;36.82;95272.25;5049404;28;20439;-72
2022/09/22 09:33:36;;;;;;;0.00;0.00;;;;;;;18.09;36.16;95273.47;5049204;28;20435;-68
2022/09/22 09:36:07;;;;;;;0.33;0.20;;;;;;;17.86;36.25;95267.22;5049132;28;20505;-70
2022/09/22 09:38:43;;;;;;;0.00;0.00;;;;;;;18.26;35.56;95265.72;5046246;28;21039;-67
2022/09/22 09:41:22;;;;;;;0.37;0.37;;;;;;;17.98;35.99;95261.44;5046239;28;20482;-66
2022/09/22 09:43:55;;;;;;;0.07;0.07;;;;;;;18.61;35.37;95264.28;5045017;28;20478;-65
2022/09/22 09:46:25;;;;;;;0.23;0.20;;;;;;;19.09;33.90;95263.50;5032723;28;20483;-68
2022/09/22 09:49:14;;;;;;;0.87;0.43;;;;;;;19.33;32.93;95262.47;5045716;28;20450;-71
2022/09/22 09:51:45;;;;;;;0.23;0.23;;;;;;;18.68;32.66;95257.50;5032332;28;20483;-70
2022/09/22 09:54:15;;;;;;;0.10;0.10;;;;;;;18.30;33.20;95256.09;5032574;28;20447;-66
2022/09/22 09:57:02;;;;;;;0.10;0.10;;;;;;;18.27;33.03;95251.38;5032440;28;20528;-70
2022/09/22 10:02:20;;;;;;;0.30;0.30;;;;;;;17.89;34.77;95234.03;5038476;28;20457;-67
2022/09/22 10:04:54;;;;;;;0.00;0.00;;;;;;;18.48;34.57;95249.16;5044655;28;20448;-72
2022/09/22 10:07:38;;;;;;;0.10;0.10;;;;;;;18.11;34.48;95252.75;5047096;28;21050;-66
2022/09/22 10:10:36;;;;;;;0.10;0.10;;;;;;;18.80;33.37;95239.19;5052302;28;21003;-69
2022/09/22 10:13:03;;;;;;;0.40;0.40;;;;;;;19.73;34.15;95240.22;5038701;28;20517;-66
2022/09/22 10:15:33;;;;;;;0.10;0.10;;;;;;;19.40;31.33;95236.25;5039892;28;20912;-68
2022/09/22 10:18:00;;;;;;;0.23;0.23;;;;;;;19.96;30.97;95239.13;5037083;28;20777;-68
2022/09/22 10:20:32;;;;;;;0.10;0.10;;;;;;;20.22;31.02;95232.06;5051858;28;20558;-67
2022/09/22 10:23:32;;;;;;;0.20;0.20;;;;;;;20.94;30.17;95227.88;5047981;28;20436;-66
2022/09/22 10:26:29;;;;;;;5.40;1.40;;;;;;;21.26;30.38;95220.56;5036662;28;20813;-66
2022/09/22 10:29:11;;;;;;;0.10;0.10;;;;;;;21.51;29.98;95225.09;5041084;28;20443;-69
2022/09/22 10:32:01;;;;;;;0.10;0.10;;;;;;;21.13;29.04;95215.06;5051313;28;21035;-69
2022/09/22 10:34:34;;;;;;;0.10;0.10;;;;;;;20.44;29.76;95226.66;5051531;28;20501;-72
2022/09/22 10:37:06;;;;;;;0.60;0.60;;;;;;;20.09;31.13;95225.72;5051726;28;20439;-75
2022/09/22 10:39:39;;;;;;;0.10;0.10;;;;;;;20.07;29.35;95203.19;5037485;28;20487;-71
2022/09/22 10:42:33;;;;;;;0.60;0.60;;;;;;;20.28;30.44;95219.41;5044529;28;20437;-72
2022/09/22 10:45:06;;;;;;;1.83;1.07;;;;;;;20.12;30.30;95216.34;5034641;28;20439;-69
2022/09/22 10:48:37;;;;;;;1.40;0.30;;;;;;;19.76;31.07;95213.06;5051066;28;20451;-64
2022/09/22 10:51:14;;;;;;;0.00;0.00;;;;;;;20.47;29.78;95202.13;5006878;28;20452;-69
2022/09/22 10:53:59;;;;;;;1.40;0.83;;;;;;;21.05;29.83;95197.22;5044979;28;20443;-67
2022/09/22 10:56:45;;;;;;;0.40;0.40;;;;;;;21.75;29.61;95194.13;5035160;28;20440;-69
2022/09/22 10:59:50;;;;;;;0.63;0.63;;;;;;;21.33;31.54;95199.53;5035183;28;20501;-71
2022/09/22 11:02:29;;;;;;;0.40;0.40;;;;;;;20.90;31.37;95186.97;5050957;28;21016;-65
2022/09/22 11:05:17;;;;;;;0.83;0.43;;;;;;;20.93;30.52;95199.66;5042420;28;20474;-66
2022/09/22 11:13:52;;;;;;;0.33;0.27;;;;;;;20.89;30.74;95192.63;5030664;28;20533;-68
2022/09/22 11:16:40;;;;;;;0.20;0.20;;;;;;;20.87;30.71;95190.28;5030414;28;20530;-66
2022/09/22 11:19:17;;;;;;;0.43;0.43;;;;;;;20.52;32.45;95193.97;5044872;28;20443;-68
2022/09/22 11:22:21;;;;;;;0.03;0.03;;;;;;;20.79;31.48;95183.06;5050678;28;20450;-66
2022/09/22 11:25:13;;;;;;;0.10;0.10;;;;;;;20.75;31.29;95174.09;5050746;28;20995;-68
2022/09/22 11:28:02;;;;;;;0.17;0.17;;;;;;;20.97;32.10;95173.97;5036388;28;20485;-69
2022/09/22 11:30:50;;;;;;;0.53;0.53;;;;;;;21.49;29.57;95171.28;5040884;28;20440;-65
2022/09/22 11:33:46;;;;;;;0.10;0.10;;;;;;;21.54;30.30;95171.13;5044252;28;20865;-68
2022/09/22 11:36:39;;;;;;;0.10;0.10;;;;;;;21.00;29.17;95167.28;5060227;28;20455;-64
2022/09/22 11:39:12;;;;;;;0.10;0.10;;;;;;;21.75;29.74;95159.44;5049869;28;20980;-66
2022/09/22 11:41:44;;;;;;;0.47;0.30;;;;;;;22.13;29.33;95156.84;5036482;28;20436;-64
2022/09/22 11:44:23;;;;;;;0.10;0.10;;;;;;;22.02;29.22;95156.41;5042268;28;20859;-68
2022/09/22 11:47:17;;;;;;;0.10;0.10;;;;;;;21.86;26.12;95160.69;5036600;28;20438;-70
2022/09/22 11:49:59;;;;;;;0.10;0.10;;;;;;;21.95;29.25;95150.00;5036113;28;20922;-67
2022/09/22 11:52:42;;;;;;;1.00;0.83;;;;;;;21.72;30.34;95156.63;5038368;28;20826;-66
2022/09/22 11:55:31;;;;;;;0.20;0.20;;;;;;;21.41;30.05;95162.22;5033350;28;20543;-66
2022/09/22 11:58:05;;;;;;;0.30;0.30;;;;;;;20.88;31.20;95165.19;5037770;28;20440;-70
2022/09/22 12:00:41;;;;;;;0.10;0.10;;;;;;;20.81;32.34;95159.56;5034543;28;21084;-66
2022/09/22 12:03:17;;;;;;;0.50;0.50;;;;;;;20.80;32.68;95167.84;5038782;28;20450;-67
2022/09/22 12:05:57;;;;;;;0.30;0.30;;;;;;;20.82;32.37;95171.75;5034068;28;20470;-65
2022/09/22 12:08:29;;;;;;;0.30;0.30;;;;;;;20.43;33.03;95179.88;5039985;28;20953;-67
2022/09/22 12:10:56;;;;;;;0.10;0.10;;;;;;;20.40;32.26;95175.13;5039664;28;20564;-73
2022/09/22 12:13:26;;;;;;;0.10;0.10;;;;;;;20.55;31.21;95172.03;5052726;28;20497;-66
2022/09/22 12:16:17;;;;;;;0.50;0.50;;;;;;;21.33;31.56;95170.22;5050029;28;21011;-71
2022/09/22 12:19:09;;;;;;;0.10;0.10;;;;;;;21.66;30.24;95163.25;5050052;28;20438;-70